sensor_id;sensor_type;location;lat;lon;timestamp;P1;durP1;ratioP1;P2;durP2;ratioP2
42714;SDS011;28351;51.480;5.706;2023-07-31T00:00:12;30.27;;;10.38;;
42714;SDS011;28351;51.480;5.706;2023-07-31T00:02:38;31.25;;;9.38;;
42714;SDS011;28351;51.480;5.706;2023-07-31T00:05:03;43.83;;;10.52;;
42714;SDS011;28351;51.480;5.706;2023-07-31T00:07:29;33.15;;;9.50;;
42714;SDS011;28351;51.480;5.706;2023-07-31T00:09:55;28.55;;;9.10;;
42714;SDS011;28351;51.480;5.706;2023-07-31T00:12:21;28.33;;;9.18;;
42714;SDS011;28351;51.480;5.706;2023-07-31T00:14:47;35.58;;;9.15;;
42714;SDS011;28351;51.480;5.706;2023-07-31T00:17:13;28.02;;;8.95;;
42714;SDS011;28351;51.480;5.706;2023-07-31T00:19:39;32.25;;;9.77;;
42714;SDS011;28351;51.480;5.706;2023-07-31T00:22:04;30.75;;;8.88;;
42714;SDS011;28351;51.480;5.706;2023-07-31T00:24:30;27.83;;;8.52;;
42714;SDS011;28351;51.480;5.706;2023-07-31T00:26:56;33.15;;;8.05;;
42714;SDS011;28351;51.480;5.706;2023-07-31T00:29:21;26.92;;;8.02;;
42714;SDS011;28351;51.480;5.706;2023-07-31T00:31:47;22.35;;;8.15;;
42714;SDS011;28351;51.480;5.706;2023-07-31T00:34:12;27.58;;;7.85;;
42714;SDS011;28351;51.480;5.706;2023-07-31T00:36:38;29.80;;;8.00;;
42714;SDS011;28351;51.480;5.706;2023-07-31T00:39:03;25.67;;;8.00;;
42714;SDS011;28351;51.480;5.706;2023-07-31T00:41:29;23.38;;;7.35;;
42714;SDS011;28351;51.480;5.706;2023-07-31T00:43:55;25.67;;;7.80;;
42714;SDS011;28351;51.480;5.706;2023-07-31T00:46:21;30.95;;;7.50;;
42714;SDS011;28351;51.480;5.706;2023-07-31T00:48:46;22.13;;;7.10;;
42714;SDS011;28351;51.480;5.706;2023-07-31T00:51:12;25.48;;;7.50;;
42714;SDS011;28351;51.480;5.706;2023-07-31T00:53:38;27.05;;;7.55;;
42714;SDS011;28351;51.480;5.706;2023-07-31T00:56:05;25.80;;;7.15;;
42714;SDS011;28351;51.480;5.706;2023-07-31T00:58:31;20.02;;;7.15;;
42714;SDS011;28351;51.480;5.706;2023-07-31T01:00:57;26.63;;;7.30;;
42714;SDS011;28351;51.480;5.706;2023-07-31T01:03:22;26.08;;;7.30;;
42714;SDS011;28351;51.480;5.706;2023-07-31T01:06:02;22.88;;;7.47;;
42714;SDS011;28351;51.480;5.706;2023-07-31T01:11:30;24.38;;;6.50;;
42714;SDS011;28351;51.480;5.706;2023-07-31T01:13:58;25.95;;;7.03;;
42714;SDS011;28351;51.480;5.706;2023-07-31T01:16:25;22.00;;;6.95;;
42714;SDS011;28351;51.480;5.706;2023-07-31T01:18:51;24.50;;;7.07;;
42714;SDS011;28351;51.480;5.706;2023-07-31T01:26:30;26.38;;;6.90;;
42714;SDS011;28351;51.480;5.706;2023-07-31T01:31:29;20.25;;;5.78;;
42714;SDS011;28351;51.480;5.706;2023-07-31T01:33:56;22.77;;;6.88;;
42714;SDS011;28351;51.480;5.706;2023-07-31T01:36:25;29.38;;;6.80;;
42714;SDS011;28351;51.480;5.706;2023-07-31T01:38:51;24.08;;;7.00;;
42714;SDS011;28351;51.480;5.706;2023-07-31T01:41:19;18.80;;;6.40;;
42714;SDS011;28351;51.480;5.706;2023-07-31T01:43:45;20.25;;;6.28;;
42714;SDS011;28351;51.480;5.706;2023-07-31T01:46:11;24.63;;;6.55;;
42714;SDS011;28351;51.480;5.706;2023-07-31T01:48:37;20.13;;;6.00;;
42714;SDS011;28351;51.480;5.706;2023-07-31T01:51:02;23.55;;;7.07;;
42714;SDS011;28351;51.480;5.706;2023-07-31T01:53:29;20.65;;;6.78;;
42714;SDS011;28351;51.480;5.706;2023-07-31T01:55:56;21.90;;;6.25;;
42714;SDS011;28351;51.480;5.706;2023-07-31T01:58:21;18.55;;;5.97;;
42714;SDS011;28351;51.480;5.706;2023-07-31T02:00:47;23.60;;;6.25;;
42714;SDS011;28351;51.480;5.706;2023-07-31T02:03:13;28.05;;;7.65;;
42714;SDS011;28351;51.480;5.706;2023-07-31T02:05:45;26.75;;;6.18;;
42714;SDS011;28351;51.480;5.706;2023-07-31T02:08:13;21.27;;;6.90;;
42714;SDS011;28351;51.480;5.706;2023-07-31T02:10:40;20.20;;;6.72;;
42714;SDS011;28351;51.480;5.706;2023-07-31T02:13:06;20.23;;;6.88;;
42714;SDS011;28351;51.480;5.706;2023-07-31T02:15:32;22.42;;;6.43;;
42714;SDS011;28351;51.480;5.706;2023-07-31T02:17:57;17.48;;;5.97;;
42714;SDS011;28351;51.480;5.706;2023-07-31T02:20:23;28.23;;;6.70;;
42714;SDS011;28351;51.480;5.706;2023-07-31T02:22:49;23.67;;;6.68;;
42714;SDS011;28351;51.480;5.706;2023-07-31T02:25:14;28.50;;;6.60;;
42714;SDS011;28351;51.480;5.706;2023-07-31T02:27:40;21.25;;;7.03;;
42714;SDS011;28351;51.480;5.706;2023-07-31T02:30:06;26.35;;;7.47;;
42714;SDS011;28351;51.480;5.706;2023-07-31T02:32:32;21.08;;;6.93;;
42714;SDS011;28351;51.480;5.706;2023-07-31T02:34:57;23.08;;;6.93;;
42714;SDS011;28351;51.480;5.706;2023-07-31T02:37:23;23.95;;;6.85;;
42714;SDS011;28351;51.480;5.706;2023-07-31T02:39:49;17.75;;;6.25;;
42714;SDS011;28351;51.480;5.706;2023-07-31T02:42:15;24.75;;;6.80;;
42714;SDS011;28351;51.480;5.706;2023-07-31T02:44:41;27.13;;;6.65;;
42714;SDS011;28351;51.480;5.706;2023-07-31T02:47:06;16.98;;;6.65;;
42714;SDS011;28351;51.480;5.706;2023-07-31T02:49:32;30.58;;;7.40;;
42714;SDS011;28351;51.480;5.706;2023-07-31T02:51:57;25.42;;;6.70;;
42714;SDS011;28351;51.480;5.706;2023-07-31T02:54:23;22.27;;;7.35;;
42714;SDS011;28351;51.480;5.706;2023-07-31T02:56:49;21.88;;;6.15;;
42714;SDS011;28351;51.480;5.706;2023-07-31T02:59:15;22.70;;;6.63;;
42714;SDS011;28351;51.480;5.706;2023-07-31T03:01:41;26.70;;;7.35;;
42714;SDS011;28351;51.480;5.706;2023-07-31T03:04:07;20.73;;;7.43;;
42714;SDS011;28351;51.480;5.706;2023-07-31T03:06:33;22.88;;;6.85;;
42714;SDS011;28351;51.480;5.706;2023-07-31T03:08:58;24.40;;;6.60;;
42714;SDS011;28351;51.480;5.706;2023-07-31T03:11:24;28.50;;;7.10;;
42714;SDS011;28351;51.480;5.706;2023-07-31T03:13:49;30.08;;;8.10;;
42714;SDS011;28351;51.480;5.706;2023-07-31T03:16:15;27.00;;;7.00;;
42714;SDS011;28351;51.480;5.706;2023-07-31T03:18:40;22.52;;;6.57;;
42714;SDS011;28351;51.480;5.706;2023-07-31T03:21:06;24.05;;;7.05;;
42714;SDS011;28351;51.480;5.706;2023-07-31T03:23:31;20.35;;;6.20;;
42714;SDS011;28351;51.480;5.706;2023-07-31T03:25:58;22.45;;;6.38;;
42714;SDS011;28351;51.480;5.706;2023-07-31T03:28:24;23.80;;;6.30;;
42714;SDS011;28351;51.480;5.706;2023-07-31T03:30:50;17.42;;;6.20;;
42714;SDS011;28351;51.480;5.706;2023-07-31T03:33:16;23.50;;;6.70;;
42714;SDS011;28351;51.480;5.706;2023-07-31T03:35:42;22.00;;;6.57;;
42714;SDS011;28351;51.480;5.706;2023-07-31T03:38:08;23.67;;;7.22;;
42714;SDS011;28351;51.480;5.706;2023-07-31T03:40:33;21.27;;;6.20;;
42714;SDS011;28351;51.480;5.706;2023-07-31T03:42:59;19.52;;;6.35;;
42714;SDS011;28351;51.480;5.706;2023-07-31T03:45:24;23.05;;;6.20;;
42714;SDS011;28351;51.480;5.706;2023-07-31T03:47:50;22.05;;;6.72;;
42714;SDS011;28351;51.480;5.706;2023-07-31T03:50:16;24.23;;;7.07;;
42714;SDS011;28351;51.480;5.706;2023-07-31T03:52:41;20.42;;;6.68;;
42714;SDS011;28351;51.480;5.706;2023-07-31T03:55:07;15.57;;;6.13;;
42714;SDS011;28351;51.480;5.706;2023-07-31T03:57:33;25.30;;;6.55;;
42714;SDS011;28351;51.480;5.706;2023-07-31T03:59:58;29.05;;;7.43;;
42714;SDS011;28351;51.480;5.706;2023-07-31T04:02:24;21.33;;;6.53;;
42714;SDS011;28351;51.480;5.706;2023-07-31T04:04:50;23.05;;;6.85;;
42714;SDS011;28351;51.480;5.706;2023-07-31T04:07:15;18.58;;;6.32;;
42714;SDS011;28351;51.480;5.706;2023-07-31T04:09:41;26.58;;;6.30;;
42714;SDS011;28351;51.480;5.706;2023-07-31T04:12:07;22.40;;;7.13;;
42714;SDS011;28351;51.480;5.706;2023-07-31T04:14:32;17.33;;;6.63;;
42714;SDS011;28351;51.480;5.706;2023-07-31T04:16:58;26.10;;;6.53;;
42714;SDS011;28351;51.480;5.706;2023-07-31T04:19:24;20.08;;;6.80;;
42714;SDS011;28351;51.480;5.706;2023-07-31T04:21:49;23.48;;;7.25;;
42714;SDS011;28351;51.480;5.706;2023-07-31T04:24:15;17.20;;;6.40;;
42714;SDS011;28351;51.480;5.706;2023-07-31T04:26:40;22.85;;;6.82;;
42714;SDS011;28351;51.480;5.706;2023-07-31T04:29:06;24.90;;;8.00;;
42714;SDS011;28351;51.480;5.706;2023-07-31T04:31:33;23.38;;;6.03;;
42714;SDS011;28351;51.480;5.706;2023-07-31T04:33:59;20.98;;;6.53;;
42714;SDS011;28351;51.480;5.706;2023-07-31T04:36:24;22.20;;;6.65;;
42714;SDS011;28351;51.480;5.706;2023-07-31T04:38:50;21.88;;;7.20;;
42714;SDS011;28351;51.480;5.706;2023-07-31T04:41:15;29.52;;;6.63;;
42714;SDS011;28351;51.480;5.706;2023-07-31T04:43:41;21.10;;;7.03;;
42714;SDS011;28351;51.480;5.706;2023-07-31T04:46:07;22.58;;;6.65;;
42714;SDS011;28351;51.480;5.706;2023-07-31T04:48:32;23.98;;;6.50;;
42714;SDS011;28351;51.480;5.706;2023-07-31T04:50:58;22.83;;;6.85;;
42714;SDS011;28351;51.480;5.706;2023-07-31T04:53:23;22.20;;;6.82;;
42714;SDS011;28351;51.480;5.706;2023-07-31T04:55:49;22.77;;;7.05;;
42714;SDS011;28351;51.480;5.706;2023-07-31T04:58:14;19.77;;;6.45;;
42714;SDS011;28351;51.480;5.706;2023-07-31T05:00:40;20.45;;;6.53;;
42714;SDS011;28351;51.480;5.706;2023-07-31T05:03:05;16.58;;;6.68;;
42714;SDS011;28351;51.480;5.706;2023-07-31T05:05:32;18.15;;;6.57;;
42714;SDS011;28351;51.480;5.706;2023-07-31T05:07:58;16.05;;;6.88;;
42714;SDS011;28351;51.480;5.706;2023-07-31T05:10:23;22.60;;;7.07;;
42714;SDS011;28351;51.480;5.706;2023-07-31T05:12:49;18.83;;;6.68;;
42714;SDS011;28351;51.480;5.706;2023-07-31T05:15:14;19.92;;;6.65;;
42714;SDS011;28351;51.480;5.706;2023-07-31T05:17:40;16.67;;;6.95;;
42714;SDS011;28351;51.480;5.706;2023-07-31T05:20:06;19.33;;;7.38;;
42714;SDS011;28351;51.480;5.706;2023-07-31T05:22:32;18.67;;;7.13;;
42714;SDS011;28351;51.480;5.706;2023-07-31T05:24:57;18.83;;;6.53;;
42714;SDS011;28351;51.480;5.706;2023-07-31T05:27:23;15.32;;;6.68;;
42714;SDS011;28351;51.480;5.706;2023-07-31T05:29:49;17.15;;;6.80;;
42714;SDS011;28351;51.480;5.706;2023-07-31T05:32:14;18.75;;;6.90;;
42714;SDS011;28351;51.480;5.706;2023-07-31T05:34:40;15.00;;;6.18;;
42714;SDS011;28351;51.480;5.706;2023-07-31T05:37:05;12.43;;;6.18;;
42714;SDS011;28351;51.480;5.706;2023-07-31T05:39:31;16.52;;;6.10;;
42714;SDS011;28351;51.480;5.706;2023-07-31T05:41:57;13.40;;;6.32;;
42714;SDS011;28351;51.480;5.706;2023-07-31T05:44:22;10.98;;;5.85;;
42714;SDS011;28351;51.480;5.706;2023-07-31T05:46:48;17.55;;;6.40;;
42714;SDS011;28351;51.480;5.706;2023-07-31T05:49:14;15.88;;;6.32;;
42714;SDS011;28351;51.480;5.706;2023-07-31T05:51:39;17.30;;;6.53;;
42714;SDS011;28351;51.480;5.706;2023-07-31T05:54:05;14.32;;;6.88;;
42714;SDS011;28351;51.480;5.706;2023-07-31T05:56:30;16.75;;;6.60;;
42714;SDS011;28351;51.480;5.706;2023-07-31T05:58:56;16.10;;;7.65;;
42714;SDS011;28351;51.480;5.706;2023-07-31T06:01:22;19.73;;;8.13;;
42714;SDS011;28351;51.480;5.706;2023-07-31T06:03:47;14.27;;;7.05;;
42714;SDS011;28351;51.480;5.706;2023-07-31T06:06:13;14.52;;;7.78;;
42714;SDS011;28351;51.480;5.706;2023-07-31T06:08:39;15.80;;;8.18;;
42714;SDS011;28351;51.480;5.706;2023-07-31T06:11:05;22.00;;;9.50;;
42714;SDS011;28351;51.480;5.706;2023-07-31T06:13:31;20.42;;;8.45;;
42714;SDS011;28351;51.480;5.706;2023-07-31T06:15:56;17.60;;;8.65;;
42714;SDS011;28351;51.480;5.706;2023-07-31T06:18:22;16.73;;;8.40;;
42714;SDS011;28351;51.480;5.706;2023-07-31T06:20:47;21.38;;;8.43;;
42714;SDS011;28351;51.480;5.706;2023-07-31T06:23:18;20.63;;;9.10;;
42714;SDS011;28351;51.480;5.706;2023-07-31T06:25:44;18.63;;;9.32;;
42714;SDS011;28351;51.480;5.706;2023-07-31T06:28:10;14.55;;;9.00;;
42714;SDS011;28351;51.480;5.706;2023-07-31T06:30:35;20.83;;;9.43;;
42714;SDS011;28351;51.480;5.706;2023-07-31T06:33:01;19.95;;;9.35;;
42714;SDS011;28351;51.480;5.706;2023-07-31T06:35:27;20.55;;;9.40;;
42714;SDS011;28351;51.480;5.706;2023-07-31T06:37:52;18.70;;;8.77;;
42714;SDS011;28351;51.480;5.706;2023-07-31T06:40:18;19.55;;;9.05;;
42714;SDS011;28351;51.480;5.706;2023-07-31T06:42:44;18.48;;;8.77;;
42714;SDS011;28351;51.480;5.706;2023-07-31T06:45:10;15.23;;;9.00;;
42714;SDS011;28351;51.480;5.706;2023-07-31T06:47:36;19.02;;;9.30;;
42714;SDS011;28351;51.480;5.706;2023-07-31T06:50:02;15.75;;;8.25;;
42714;SDS011;28351;51.480;5.706;2023-07-31T06:52:27;16.70;;;8.75;;
42714;SDS011;28351;51.480;5.706;2023-07-31T06:55:03;15.35;;;8.15;;
42714;SDS011;28351;51.480;5.706;2023-07-31T06:57:40;13.88;;;7.55;;
42714;SDS011;28351;51.480;5.706;2023-07-31T07:00:06;16.73;;;8.60;;
42714;SDS011;28351;51.480;5.706;2023-07-31T07:02:32;17.13;;;8.07;;
42714;SDS011;28351;51.480;5.706;2023-07-31T07:04:58;15.38;;;7.82;;
42714;SDS011;28351;51.480;5.706;2023-07-31T07:07:23;15.50;;;7.03;;
42714;SDS011;28351;51.480;5.706;2023-07-31T07:09:49;11.90;;;6.90;;
42714;SDS011;28351;51.480;5.706;2023-07-31T07:12:14;14.45;;;8.05;;
42714;SDS011;28351;51.480;5.706;2023-07-31T07:14:40;15.43;;;7.80;;
42714;SDS011;28351;51.480;5.706;2023-07-31T07:17:06;15.48;;;8.48;;
42714;SDS011;28351;51.480;5.706;2023-07-31T07:19:31;12.60;;;7.40;;
42714;SDS011;28351;51.480;5.706;2023-07-31T07:21:57;11.70;;;7.20;;
42714;SDS011;28351;51.480;5.706;2023-07-31T07:24:24;13.98;;;7.20;;
42714;SDS011;28351;51.480;5.706;2023-07-31T07:26:50;12.25;;;7.07;;
42714;SDS011;28351;51.480;5.706;2023-07-31T07:29:16;12.90;;;7.20;;
42714;SDS011;28351;51.480;5.706;2023-07-31T07:31:41;16.48;;;7.72;;
42714;SDS011;28351;51.480;5.706;2023-07-31T07:34:07;14.80;;;7.13;;
42714;SDS011;28351;51.480;5.706;2023-07-31T07:36:32;14.90;;;7.68;;
42714;SDS011;28351;51.480;5.706;2023-07-31T07:38:58;9.88;;;6.20;;
42714;SDS011;28351;51.480;5.706;2023-07-31T07:41:25;11.77;;;6.95;;
42714;SDS011;28351;51.480;5.706;2023-07-31T07:43:50;9.40;;;6.10;;
42714;SDS011;28351;51.480;5.706;2023-07-31T07:46:17;9.10;;;5.60;;
42714;SDS011;28351;51.480;5.706;2023-07-31T07:48:42;10.40;;;6.05;;
42714;SDS011;28351;51.480;5.706;2023-07-31T07:51:08;9.65;;;5.75;;
42714;SDS011;28351;51.480;5.706;2023-07-31T07:53:33;9.57;;;6.03;;
42714;SDS011;28351;51.480;5.706;2023-07-31T07:55:59;13.07;;;6.38;;
42714;SDS011;28351;51.480;5.706;2023-07-31T07:58:24;10.07;;;6.18;;
42714;SDS011;28351;51.480;5.706;2023-07-31T08:00:50;12.23;;;6.15;;
42714;SDS011;28351;51.480;5.706;2023-07-31T08:03:16;14.20;;;6.72;;
42714;SDS011;28351;51.480;5.706;2023-07-31T08:05:43;11.85;;;7.15;;
42714;SDS011;28351;51.480;5.706;2023-07-31T08:08:13;11.10;;;7.28;;
42714;SDS011;28351;51.480;5.706;2023-07-31T08:10:41;17.48;;;6.95;;
42714;SDS011;28351;51.480;5.706;2023-07-31T08:13:07;13.18;;;7.03;;
42714;SDS011;28351;51.480;5.706;2023-07-31T08:15:32;16.58;;;8.40;;
42714;SDS011;28351;51.480;5.706;2023-07-31T08:17:58;12.57;;;8.05;;
42714;SDS011;28351;51.480;5.706;2023-07-31T08:20:23;16.42;;;7.78;;
42714;SDS011;28351;51.480;5.706;2023-07-31T08:22:49;14.40;;;6.97;;
42714;SDS011;28351;51.480;5.706;2023-07-31T08:25:15;19.75;;;9.68;;
42714;SDS011;28351;51.480;5.706;2023-07-31T08:27:43;11.70;;;4.80;;
42714;SDS011;28351;51.480;5.706;2023-07-31T08:30:09;11.88;;;5.68;;
42714;SDS011;28351;51.480;5.706;2023-07-31T08:32:36;10.55;;;5.30;;
42714;SDS011;28351;51.480;5.706;2023-07-31T08:35:02;11.15;;;5.38;;
42714;SDS011;28351;51.480;5.706;2023-07-31T08:37:28;8.77;;;5.32;;
42714;SDS011;28351;51.480;5.706;2023-07-31T08:39:54;9.40;;;5.60;;
42714;SDS011;28351;51.480;5.706;2023-07-31T08:42:19;11.82;;;7.25;;
42714;SDS011;28351;51.480;5.706;2023-07-31T08:44:46;15.43;;;6.75;;
42714;SDS011;28351;51.480;5.706;2023-07-31T08:47:12;11.32;;;6.78;;
42714;SDS011;28351;51.480;5.706;2023-07-31T08:49:39;10.57;;;6.47;;
42714;SDS011;28351;51.480;5.706;2023-07-31T08:52:06;12.60;;;5.30;;
42714;SDS011;28351;51.480;5.706;2023-07-31T08:54:32;11.13;;;5.60;;
42714;SDS011;28351;51.480;5.706;2023-07-31T08:56:58;7.97;;;5.00;;
42714;SDS011;28351;51.480;5.706;2023-07-31T08:59:25;9.15;;;5.15;;
42714;SDS011;28351;51.480;5.706;2023-07-31T09:01:56;11.43;;;5.53;;
42714;SDS011;28351;51.480;5.706;2023-07-31T09:04:25;8.40;;;4.90;;
42714;SDS011;28351;51.480;5.706;2023-07-31T09:06:52;10.90;;;5.25;;
42714;SDS011;28351;51.480;5.706;2023-07-31T09:09:22;13.15;;;6.15;;
42714;SDS011;28351;51.480;5.706;2023-07-31T09:11:49;14.02;;;5.88;;
42714;SDS011;28351;51.480;5.706;2023-07-31T09:14:15;14.63;;;5.47;;
42714;SDS011;28351;51.480;5.706;2023-07-31T09:21:58;15.35;;;6.65;;
42714;SDS011;28351;51.480;5.706;2023-07-31T09:24:25;13.70;;;6.80;;
42714;SDS011;28351;51.480;5.706;2023-07-31T09:26:55;14.23;;;5.93;;
42714;SDS011;28351;51.480;5.706;2023-07-31T09:29:22;13.85;;;5.13;;
42714;SDS011;28351;51.480;5.706;2023-07-31T09:31:48;9.00;;;5.13;;
42714;SDS011;28351;51.480;5.706;2023-07-31T09:34:14;9.93;;;5.15;;
42714;SDS011;28351;51.480;5.706;2023-07-31T09:36:49;11.60;;;4.95;;
42714;SDS011;28351;51.480;5.706;2023-07-31T09:39:16;10.35;;;5.30;;
42714;SDS011;28351;51.480;5.706;2023-07-31T09:41:43;12.32;;;5.13;;
42714;SDS011;28351;51.480;5.706;2023-07-31T09:44:11;9.27;;;5.43;;
42714;SDS011;28351;51.480;5.706;2023-07-31T09:46:37;11.38;;;6.40;;
42714;SDS011;28351;51.480;5.706;2023-07-31T09:49:13;12.13;;;6.00;;
42714;SDS011;28351;51.480;5.706;2023-07-31T09:51:40;10.57;;;4.68;;
42714;SDS011;28351;51.480;5.706;2023-07-31T09:56:42;12.43;;;4.68;;
42714;SDS011;28351;51.480;5.706;2023-07-31T09:59:16;8.88;;;4.80;;
42714;SDS011;28351;51.480;5.706;2023-07-31T10:01:44;14.40;;;5.30;;
42714;SDS011;28351;51.480;5.706;2023-07-31T10:04:11;9.63;;;5.38;;
42714;SDS011;28351;51.480;5.706;2023-07-31T10:06:38;6.97;;;4.63;;
42714;SDS011;28351;51.480;5.706;2023-07-31T10:09:08;10.10;;;4.20;;
42714;SDS011;28351;51.480;5.706;2023-07-31T10:11:41;12.88;;;5.85;;
42714;SDS011;28351;51.480;5.706;2023-07-31T10:14:09;11.38;;;5.35;;
42714;SDS011;28351;51.480;5.706;2023-07-31T10:16:37;10.25;;;5.38;;
42714;SDS011;28351;51.480;5.706;2023-07-31T10:21:30;12.57;;;5.00;;
42714;SDS011;28351;51.480;5.706;2023-07-31T10:24:00;7.82;;;3.85;;
42714;SDS011;28351;51.480;5.706;2023-07-31T10:26:28;8.85;;;4.18;;
42714;SDS011;28351;51.480;5.706;2023-07-31T10:28:55;8.27;;;4.15;;
42714;SDS011;28351;51.480;5.706;2023-07-31T10:31:22;7.07;;;3.55;;
42714;SDS011;28351;51.480;5.706;2023-07-31T10:33:49;8.38;;;4.25;;
42714;SDS011;28351;51.480;5.706;2023-07-31T10:36:17;9.27;;;3.83;;
42714;SDS011;28351;51.480;5.706;2023-07-31T10:38:44;7.13;;;3.67;;
42714;SDS011;28351;51.480;5.706;2023-07-31T10:41:10;7.47;;;3.67;;
42714;SDS011;28351;51.480;5.706;2023-07-31T10:43:38;9.35;;;4.22;;
42714;SDS011;28351;51.480;5.706;2023-07-31T10:46:08;5.43;;;3.50;;
42714;SDS011;28351;51.480;5.706;2023-07-31T10:48:36;7.53;;;3.13;;
42714;SDS011;28351;51.480;5.706;2023-07-31T10:51:08;7.38;;;3.50;;
42714;SDS011;28351;51.480;5.706;2023-07-31T10:53:35;6.93;;;3.78;;
42714;SDS011;28351;51.480;5.706;2023-07-31T10:56:04;6.30;;;3.40;;
42714;SDS011;28351;51.480;5.706;2023-07-31T10:58:32;5.40;;;3.65;;
42714;SDS011;28351;51.480;5.706;2023-07-31T11:01:00;9.85;;;3.95;;
42714;SDS011;28351;51.480;5.706;2023-07-31T11:06:07;7.40;;;3.25;;
42714;SDS011;28351;51.480;5.706;2023-07-31T11:08:34;8.70;;;3.67;;
42714;SDS011;28351;51.480;5.706;2023-07-31T11:11:06;5.78;;;3.10;;
42714;SDS011;28351;51.480;5.706;2023-07-31T11:16:04;6.80;;;3.13;;
42714;SDS011;28351;51.480;5.706;2023-07-31T11:18:30;4.75;;;2.42;;
42714;SDS011;28351;51.480;5.706;2023-07-31T11:20:56;5.72;;;3.65;;
42714;SDS011;28351;51.480;5.706;2023-07-31T11:23:22;6.55;;;3.20;;
42714;SDS011;28351;51.480;5.706;2023-07-31T11:25:48;6.53;;;2.78;;
42714;SDS011;28351;51.480;5.706;2023-07-31T11:28:15;4.75;;;2.70;;
42714;SDS011;28351;51.480;5.706;2023-07-31T11:30:42;5.10;;;2.65;;
42714;SDS011;28351;51.480;5.706;2023-07-31T11:33:09;3.92;;;2.53;;
42714;SDS011;28351;51.480;5.706;2023-07-31T11:35:40;6.88;;;2.30;;
42714;SDS011;28351;51.480;5.706;2023-07-31T11:38:11;8.40;;;2.60;;
42714;SDS011;28351;51.480;5.706;2023-07-31T11:40:45;5.93;;;2.83;;
42714;SDS011;28351;51.480;5.706;2023-07-31T11:43:11;5.55;;;2.70;;
42714;SDS011;28351;51.480;5.706;2023-07-31T11:45:41;8.90;;;3.03;;
42714;SDS011;28351;51.480;5.706;2023-07-31T11:48:07;5.50;;;2.20;;
42714;SDS011;28351;51.480;5.706;2023-07-31T11:50:33;7.90;;;3.70;;
42714;SDS011;28351;51.480;5.706;2023-07-31T11:53:01;7.68;;;3.35;;
42714;SDS011;28351;51.480;5.706;2023-07-31T11:55:32;10.55;;;3.03;;
42714;SDS011;28351;51.480;5.706;2023-07-31T11:57:58;4.10;;;2.70;;
42714;SDS011;28351;51.480;5.706;2023-07-31T12:00:25;6.90;;;2.30;;
42714;SDS011;28351;51.480;5.706;2023-07-31T12:02:51;6.07;;;2.60;;
42714;SDS011;28351;51.480;5.706;2023-07-31T12:05:18;5.32;;;2.15;;
42714;SDS011;28351;51.480;5.706;2023-07-31T12:07:50;5.07;;;1.95;;
42714;SDS011;28351;51.480;5.706;2023-07-31T12:12:59;5.35;;;2.80;;
42714;SDS011;28351;51.480;5.706;2023-07-31T12:15:35;5.90;;;2.20;;
42714;SDS011;28351;51.480;5.706;2023-07-31T12:18:08;8.35;;;3.35;;
42714;SDS011;28351;51.480;5.706;2023-07-31T12:20:57;7.95;;;2.92;;
42714;SDS011;28351;51.480;5.706;2023-07-31T12:23:33;6.65;;;3.58;;
42714;SDS011;28351;51.480;5.706;2023-07-31T12:26:00;7.40;;;3.08;;
42714;SDS011;28351;51.480;5.706;2023-07-31T12:28:32;7.88;;;3.00;;
42714;SDS011;28351;51.480;5.706;2023-07-31T12:31:05;5.57;;;2.78;;
42714;SDS011;28351;51.480;5.706;2023-07-31T12:33:32;8.40;;;3.17;;
42714;SDS011;28351;51.480;5.706;2023-07-31T12:36:01;8.27;;;2.70;;
42714;SDS011;28351;51.480;5.706;2023-07-31T12:38:28;5.53;;;2.80;;
42714;SDS011;28351;51.480;5.706;2023-07-31T12:40:54;5.38;;;2.72;;
42714;SDS011;28351;51.480;5.706;2023-07-31T12:43:20;7.93;;;4.00;;
42714;SDS011;28351;51.480;5.706;2023-07-31T12:45:46;8.57;;;4.40;;
42714;SDS011;28351;51.480;5.706;2023-07-31T12:48:12;9.43;;;4.60;;
42714;SDS011;28351;51.480;5.706;2023-07-31T12:50:38;9.27;;;4.15;;
42714;SDS011;28351;51.480;5.706;2023-07-31T12:53:04;7.53;;;4.40;;
42714;SDS011;28351;51.480;5.706;2023-07-31T12:55:30;13.88;;;4.75;;
42714;SDS011;28351;51.480;5.706;2023-07-31T12:57:57;10.90;;;4.85;;
42714;SDS011;28351;51.480;5.706;2023-07-31T13:00:23;9.05;;;4.38;;
42714;SDS011;28351;51.480;5.706;2023-07-31T13:02:49;9.85;;;4.18;;
42714;SDS011;28351;51.480;5.706;2023-07-31T13:05:14;9.57;;;4.40;;
42714;SDS011;28351;51.480;5.706;2023-07-31T13:07:40;9.98;;;3.70;;
42714;SDS011;28351;51.480;5.706;2023-07-31T13:10:06;10.25;;;4.20;;
42714;SDS011;28351;51.480;5.706;2023-07-31T13:12:32;10.75;;;3.67;;
42714;SDS011;28351;51.480;5.706;2023-07-31T13:14:58;11.35;;;5.18;;
42714;SDS011;28351;51.480;5.706;2023-07-31T13:17:24;10.60;;;4.15;;
42714;SDS011;28351;51.480;5.706;2023-07-31T13:19:49;11.35;;;4.53;;
42714;SDS011;28351;51.480;5.706;2023-07-31T13:22:15;10.35;;;3.75;;
42714;SDS011;28351;51.480;5.706;2023-07-31T13:24:40;8.10;;;4.03;;
42714;SDS011;28351;51.480;5.706;2023-07-31T13:27:06;6.80;;;3.65;;
42714;SDS011;28351;51.480;5.706;2023-07-31T13:29:32;13.30;;;3.75;;
42714;SDS011;28351;51.480;5.706;2023-07-31T13:31:57;10.55;;;3.13;;
42714;SDS011;28351;51.480;5.706;2023-07-31T13:34:23;9.13;;;3.55;;
42714;SDS011;28351;51.480;5.706;2023-07-31T13:36:49;6.40;;;3.47;;
42714;SDS011;28351;51.480;5.706;2023-07-31T13:39:15;6.32;;;3.13;;
42714;SDS011;28351;51.480;5.706;2023-07-31T13:41:40;9.45;;;4.25;;
42714;SDS011;28351;51.480;5.706;2023-07-31T13:44:06;14.38;;;5.30;;
42714;SDS011;28351;51.480;5.706;2023-07-31T13:46:32;10.55;;;4.65;;
42714;SDS011;28351;51.480;5.706;2023-07-31T13:49:00;12.05;;;4.75;;
42714;SDS011;28351;51.480;5.706;2023-07-31T13:51:26;9.13;;;4.05;;
42714;SDS011;28351;51.480;5.706;2023-07-31T13:53:52;8.52;;;4.65;;
42714;SDS011;28351;51.480;5.706;2023-07-31T13:56:18;8.52;;;4.40;;
42714;SDS011;28351;51.480;5.706;2023-07-31T13:58:44;8.20;;;4.00;;
42714;SDS011;28351;51.480;5.706;2023-07-31T14:01:09;11.15;;;4.30;;
42714;SDS011;28351;51.480;5.706;2023-07-31T14:03:35;9.15;;;4.40;;
42714;SDS011;28351;51.480;5.706;2023-07-31T14:06:01;13.43;;;5.03;;
42714;SDS011;28351;51.480;5.706;2023-07-31T14:08:27;7.25;;;4.00;;
42714;SDS011;28351;51.480;5.706;2023-07-31T14:10:52;13.20;;;4.88;;
42714;SDS011;28351;51.480;5.706;2023-07-31T14:13:18;14.75;;;4.90;;
42714;SDS011;28351;51.480;5.706;2023-07-31T14:15:44;10.45;;;4.65;;
42714;SDS011;28351;51.480;5.706;2023-07-31T14:18:09;10.90;;;4.45;;
42714;SDS011;28351;51.480;5.706;2023-07-31T14:20:35;12.50;;;4.00;;
42714;SDS011;28351;51.480;5.706;2023-07-31T14:23:02;13.50;;;3.80;;
42714;SDS011;28351;51.480;5.706;2023-07-31T14:25:28;9.77;;;4.05;;
42714;SDS011;28351;51.480;5.706;2023-07-31T14:27:54;8.48;;;4.25;;
42714;SDS011;28351;51.480;5.706;2023-07-31T14:30:20;10.75;;;4.45;;
42714;SDS011;28351;51.480;5.706;2023-07-31T14:32:46;9.40;;;3.88;;
42714;SDS011;28351;51.480;5.706;2023-07-31T14:35:11;7.68;;;3.13;;
42714;SDS011;28351;51.480;5.706;2023-07-31T14:37:38;7.15;;;3.25;;
42714;SDS011;28351;51.480;5.706;2023-07-31T14:40:05;7.75;;;4.03;;
42714;SDS011;28351;51.480;5.706;2023-07-31T14:42:32;14.03;;;4.47;;
42714;SDS011;28351;51.480;5.706;2023-07-31T14:44:58;8.98;;;4.03;;
42714;SDS011;28351;51.480;5.706;2023-07-31T14:47:24;8.27;;;4.25;;
42714;SDS011;28351;51.480;5.706;2023-07-31T14:49:49;10.75;;;4.30;;
42714;SDS011;28351;51.480;5.706;2023-07-31T14:52:15;12.15;;;3.90;;
42714;SDS011;28351;51.480;5.706;2023-07-31T14:54:41;8.35;;;3.60;;
42714;SDS011;28351;51.480;5.706;2023-07-31T14:57:06;10.05;;;3.85;;
42714;SDS011;28351;51.480;5.706;2023-07-31T14:59:33;9.48;;;3.47;;
42714;SDS011;28351;51.480;5.706;2023-07-31T15:01:58;8.35;;;3.85;;